Chaumont-Gistoux, Belgium
Current Conditions -  °F | °C
As of 10:25 PM on Saturday 25 Oct 2014 (Local Time) from EBBE Reporting Station
Overcast Overcast  
Wind Chill: 52°   Ceiling: 4100
Heat Index: 52°   Visibility: 6mi
Dew Point: 48°   Wind: 6mph
Humidity: 88%   Direction: 180°S
Pressure: 30.21"   Gusts: NA
Location:  50.68°N, 4.72°E
Report Text: EBBE 252025Z AUTO 18005KT 9999 FEW028/// OVC041/// 11/09 Q1023 BLU
Loading
Personal Weather Stations






























Interactive Weather Map
Tropical Storm Tracking
New forecast layout! Learn more

10-Day Weather Forecast

Advertisements
Track Severe Weather on mobile